createdAt,value
2018-05-03T00:01:05.276Z,4.87
2018-05-03T00:03:31.455Z,4.70
2018-05-03T00:05:57.655Z,4.63
2018-05-03T00:08:23.898Z,5.17
2018-05-03T00:10:50.089Z,6.40
2018-05-03T00:13:16.288Z,5.03
2018-05-03T00:15:42.483Z,4.83
2018-05-03T00:18:08.687Z,4.83
2018-05-03T00:20:34.888Z,5.60
2018-05-03T00:23:01.865Z,5.90
2018-05-03T00:25:28.779Z,5.67
2018-05-03T00:27:54.987Z,5.93
2018-05-03T00:30:21.275Z,5.70
2018-05-03T00:32:47.458Z,7.00
2018-05-03T00:35:15.156Z,6.67
2018-05-03T00:37:42.100Z,6.67
2018-05-03T00:40:09.019Z,6.90
2018-05-03T00:42:35.207Z,6.93
2018-05-03T00:45:01.381Z,6.17
2018-05-03T00:47:27.548Z,4.57
2018-05-03T00:49:53.726Z,5.13
2018-05-03T00:52:19.891Z,4.00
2018-05-03T00:54:46.820Z,4.67
2018-05-03T00:57:13.031Z,6.97
2018-05-03T00:59:39.226Z,5.97
2018-05-03T01:02:05.416Z,5.23
2018-05-03T01:04:32.374Z,4.43
2018-05-03T01:06:58.576Z,4.47
2018-05-03T01:09:24.814Z,4.77
2018-05-03T01:11:51.783Z,6.53
2018-05-03T01:14:17.979Z,4.73
2018-05-03T01:16:44.936Z,6.77
2018-05-03T01:19:11.860Z,5.77
2018-05-03T01:21:38.805Z,3.90
2018-05-03T01:24:05.793Z,4.87
2018-05-03T01:26:32.016Z,7.47
2018-05-03T01:28:58.228Z,5.10
2018-05-03T01:31:24.404Z,3.63
2018-05-03T01:33:50.604Z,4.30
2018-05-03T01:36:24.792Z,3.53
2018-05-03T01:38:50.998Z,5.13
2018-05-03T01:41:17.245Z,3.50
2018-05-03T01:43:43.408Z,3.90
2018-05-03T01:46:09.696Z,4.83
2018-05-03T01:48:35.887Z,4.33
2018-05-03T01:51:02.072Z,3.40
2018-05-03T01:53:28.262Z,4.97
2018-05-03T01:55:54.456Z,3.00
2018-05-03T01:58:20.636Z,3.00
2018-05-03T02:00:46.855Z,4.10
2018-05-03T02:03:13.803Z,3.80
2018-05-03T02:05:40.755Z,3.47
2018-05-03T02:08:06.988Z,3.23
2018-05-03T02:10:33.204Z,5.60
2018-05-03T02:12:59.396Z,6.00
2018-05-03T02:15:26.375Z,3.70
2018-05-03T02:17:53.307Z,4.57
2018-05-03T02:20:19.512Z,4.57
2018-05-03T02:22:46.510Z,4.77
2018-05-03T02:25:12.693Z,4.90
2018-05-03T02:27:38.915Z,4.70
2018-05-03T02:30:05.139Z,3.83
2018-05-03T02:32:31.356Z,3.67
2018-05-03T02:34:57.583Z,5.77
2018-05-03T02:37:23.777Z,4.03
2018-05-03T02:39:49.953Z,3.50
2018-05-03T02:42:16.175Z,3.57
2018-05-03T02:44:42.594Z,5.33
2018-05-03T02:47:08.781Z,5.20
2018-05-03T02:49:35.010Z,5.10
2018-05-03T02:52:01.197Z,5.47
2018-05-03T02:54:28.140Z,6.13
2018-05-03T02:57:06.660Z,5.23
2018-05-03T02:59:45.317Z,4.17
2018-05-03T03:02:25.125Z,3.50
2018-05-03T03:08:45.092Z,4.23
2018-05-03T03:11:29.942Z,4.87
2018-05-03T03:14:14.771Z,4.80
2018-05-03T03:17:00.385Z,6.63
2018-05-03T03:19:38.933Z,3.67
2018-05-03T03:22:23.901Z,4.13
2018-05-03T03:25:02.643Z,3.80
2018-05-03T03:27:48.159Z,5.33
2018-05-03T03:30:32.931Z,6.43
2018-05-03T03:33:11.676Z,3.50
2018-05-03T03:41:33.521Z,5.80
2018-05-03T03:44:12.089Z,4.03
2018-05-03T03:46:38.315Z,8.77
2018-05-03T03:49:04.502Z,5.40
2018-05-03T03:51:37.695Z,5.03
2018-05-03T03:54:03.907Z,4.47
2018-05-03T03:56:30.108Z,5.17
2018-05-03T03:58:57.117Z,4.30
2018-05-03T04:01:23.990Z,4.20
2018-05-03T04:03:50.233Z,4.73
2018-05-03T04:06:17.177Z,4.53
2018-05-03T04:08:44.104Z,5.43
2018-05-03T04:11:10.276Z,3.90
2018-05-03T04:13:43.363Z,4.43
2018-05-03T04:16:09.536Z,4.93
2018-05-03T04:18:48.133Z,4.90
2018-05-03T04:21:26.686Z,5.60
2018-05-03T04:24:14.008Z,4.03
2018-05-03T04:26:40.939Z,4.30
2018-05-03T04:29:07.147Z,5.53
2018-05-03T04:31:33.337Z,5.03
2018-05-03T04:33:59.532Z,5.07
2018-05-03T04:36:26.458Z,5.83
2018-05-03T04:38:52.676Z,5.97
2018-05-03T04:41:18.860Z,4.70
2018-05-03T04:43:45.044Z,5.80
2018-05-03T04:46:11.243Z,4.73
2018-05-03T04:48:37.424Z,4.47
2018-05-03T04:51:04.349Z,6.00
2018-05-03T04:53:31.288Z,5.17
2018-05-03T04:55:57.475Z,7.00
2018-05-03T04:58:23.643Z,6.40
2018-05-03T05:00:49.844Z,6.53
2018-05-03T05:03:16.011Z,6.67
2018-05-03T05:05:42.276Z,7.53
2018-05-03T05:08:08.415Z,6.47
2018-05-03T05:10:34.696Z,7.17
2018-05-03T05:13:00.815Z,5.87
2018-05-03T05:15:27.003Z,8.43
2018-05-03T05:17:53.253Z,8.33
2018-05-03T05:20:19.409Z,8.93
2018-05-03T05:22:46.337Z,6.67
2018-05-03T05:25:12.551Z,5.13
2018-05-03T05:27:38.727Z,6.27
2018-05-03T05:30:05.672Z,7.07
2018-05-03T05:32:31.850Z,12.70
2018-05-03T05:34:58.091Z,5.53
2018-05-03T05:37:24.283Z,5.77
2018-05-03T05:39:50.497Z,5.97
2018-05-03T05:42:16.686Z,8.43
2018-05-03T05:44:42.876Z,7.37
2018-05-03T05:47:09.078Z,7.17
2018-05-03T05:49:35.256Z,8.00
2018-05-03T05:52:02.230Z,8.27
2018-05-03T05:54:29.145Z,6.30
2018-05-03T05:56:56.084Z,6.07
2018-05-03T05:59:22.287Z,8.07
2018-05-03T06:01:48.449Z,8.63
2018-05-03T06:04:15.409Z,6.97
2018-05-03T06:06:41.578Z,10.73
2018-05-03T06:09:07.751Z,7.83
2018-05-03T06:11:34.681Z,8.40
2018-05-03T06:14:00.883Z,8.93
2018-05-03T06:16:27.044Z,9.07
2018-05-03T06:18:53.208Z,7.43
2018-05-03T06:21:19.387Z,12.37
2018-05-03T06:23:45.547Z,6.83
2018-05-03T06:26:15.403Z,7.20
2018-05-03T06:28:41.601Z,10.83
2018-05-03T06:31:07.779Z,8.33
2018-05-03T06:33:33.953Z,9.20
2018-05-03T06:36:00.166Z,7.20
2018-05-03T06:38:27.468Z,7.73
2018-05-03T06:40:53.639Z,8.57
2018-05-03T06:43:20.580Z,7.63
2018-05-03T06:45:47.508Z,9.47
2018-05-03T06:48:15.144Z,9.97
2018-05-03T06:50:41.339Z,11.93
2018-05-03T06:53:07.512Z,6.90
2018-05-03T06:55:33.675Z,6.87
2018-05-03T06:58:00.624Z,9.57
2018-05-03T07:00:27.543Z,9.33
2018-05-03T07:02:53.716Z,7.83
2018-05-03T07:05:19.916Z,8.67
2018-05-03T07:07:46.857Z,6.97
2018-05-03T07:10:13.776Z,6.40
2018-05-03T07:12:39.968Z,6.17
2018-05-03T07:15:06.147Z,5.50
2018-05-03T07:17:32.324Z,7.03
2018-05-03T07:20:05.309Z,7.10
2018-05-03T07:22:31.516Z,7.57
2018-05-03T07:24:58.432Z,7.30
2018-05-03T07:27:24.621Z,6.23
2018-05-03T07:29:50.779Z,5.03
2018-05-03T07:32:16.957Z,6.30
2018-05-03T07:34:43.224Z,7.70
2018-05-03T07:37:09.319Z,6.07
2018-05-03T07:39:35.527Z,5.30
2018-05-03T07:42:01.724Z,6.73
2018-05-03T07:44:27.903Z,6.93
2018-05-03T07:46:54.079Z,6.83
2018-05-03T07:49:21.006Z,6.60
2018-05-03T07:51:47.210Z,7.50
2018-05-03T07:54:13.380Z,5.23
2018-05-03T07:56:39.657Z,9.07
2018-05-03T07:59:07.263Z,6.10
2018-05-03T08:01:33.455Z,6.50
2018-05-03T08:03:59.667Z,5.57
2018-05-03T08:06:25.863Z,7.73
2018-05-03T08:08:52.803Z,5.83
2018-05-03T08:11:19.716Z,3.90
2018-05-03T08:13:45.928Z,7.23
2018-05-03T08:16:12.126Z,9.63
2018-05-03T08:18:39.083Z,5.17
2018-05-03T08:21:06.088Z,5.63
2018-05-03T08:23:33.004Z,6.87
2018-05-03T08:25:59.200Z,4.33
2018-05-03T08:28:25.387Z,2.93
2018-05-03T08:30:52.315Z,5.50
2018-05-03T08:33:18.662Z,4.43
2018-05-03T08:35:45.103Z,3.03
2018-05-03T08:38:12.015Z,3.37
2018-05-03T08:40:38.219Z,5.40
2018-05-03T08:43:04.404Z,4.77
2018-05-03T08:45:31.330Z,4.90
2018-05-03T08:47:58.263Z,3.73
2018-05-03T08:50:24.459Z,3.70
2018-05-03T08:52:50.694Z,5.53
2018-05-03T08:55:16.955Z,3.37
2018-05-03T08:57:43.891Z,4.43
2018-05-03T09:00:10.063Z,3.33
2018-05-03T09:02:36.248Z,4.00
2018-05-03T09:05:03.983Z,3.57
2018-05-03T09:07:30.191Z,3.97
2018-05-03T09:09:57.818Z,3.50
2018-05-03T09:12:24.051Z,2.43
2018-05-03T09:14:51.030Z,3.63
2018-05-03T09:17:17.238Z,3.13
2018-05-03T09:19:43.415Z,2.10
2018-05-03T09:22:09.609Z,3.53
2018-05-03T09:24:35.796Z,4.53
2018-05-03T09:27:01.979Z,2.50
2018-05-03T09:29:28.155Z,2.73
2018-05-03T09:31:54.383Z,3.47
2018-05-03T09:34:20.585Z,2.80
2018-05-03T09:36:46.804Z,3.53
2018-05-03T09:39:13.047Z,3.97
2018-05-03T09:41:39.233Z,3.90
2018-05-03T09:44:05.415Z,3.70
2018-05-03T09:46:31.625Z,2.97
2018-05-03T09:48:57.816Z,2.30
2018-05-03T09:51:23.988Z,3.30
2018-05-03T09:53:50.177Z,3.60
2018-05-03T09:56:16.347Z,4.83
2018-05-03T09:58:43.278Z,4.63
2018-05-03T10:01:09.490Z,3.40
2018-05-03T10:03:35.691Z,3.13
2018-05-03T10:06:01.867Z,3.03
2018-05-03T10:08:28.067Z,3.43
2018-05-03T10:10:54.300Z,2.50
2018-05-03T10:13:20.542Z,2.70
2018-05-03T10:15:46.776Z,4.43
2018-05-03T10:18:13.771Z,2.73
2018-05-03T10:20:40.748Z,3.70
2018-05-03T10:23:07.032Z,2.53
2018-05-03T10:25:33.242Z,3.63
2018-05-03T10:28:00.203Z,3.43
2018-05-03T10:30:27.131Z,3.57
2018-05-03T10:32:53.297Z,2.13
2018-05-03T10:35:19.479Z,3.90
2018-05-03T10:37:46.431Z,2.73
2018-05-03T10:40:13.347Z,3.07
2018-05-03T10:42:39.523Z,4.27
2018-05-03T10:45:05.742Z,3.40
2018-05-03T10:47:32.684Z,2.83
2018-05-03T10:49:59.628Z,6.07
2018-05-03T10:52:26.571Z,3.50
2018-05-03T10:54:53.507Z,3.17
2018-05-03T10:57:20.440Z,2.80
2018-05-03T10:59:46.629Z,2.33
2018-05-03T11:02:12.809Z,2.83
2018-05-03T11:04:38.975Z,4.83
2018-05-03T11:07:05.169Z,2.53
2018-05-03T11:09:32.121Z,3.60
2018-05-03T11:14:31.945Z,2.73
2018-05-03T11:16:58.131Z,5.67
2018-05-03T11:19:24.313Z,2.53
2018-05-03T11:21:50.563Z,2.30
2018-05-03T11:24:16.728Z,4.90
2018-05-03T11:26:42.928Z,2.87
2018-05-03T11:29:09.114Z,2.63
2018-05-03T11:31:36.076Z,2.57
2018-05-03T11:34:02.320Z,2.47
2018-05-03T11:36:28.519Z,3.37
2018-05-03T11:38:54.719Z,3.30
2018-05-03T11:41:20.911Z,3.27
2018-05-03T11:43:54.243Z,3.80
2018-05-03T11:46:20.409Z,2.97
2018-05-03T11:48:47.411Z,3.30
2018-05-03T11:51:13.534Z,2.90
2018-05-03T11:53:39.712Z,4.63
2018-05-03T11:56:05.896Z,3.10
2018-05-03T11:58:32.100Z,2.03
2018-05-03T12:00:58.279Z,3.87
2018-05-03T12:03:25.220Z,4.90
2018-05-03T12:05:51.430Z,3.00
2018-05-03T12:08:17.629Z,4.23
2018-05-03T12:10:43.832Z,2.63
2018-05-03T12:13:10.033Z,2.93
2018-05-03T12:15:36.959Z,2.60
2018-05-03T12:18:03.180Z,2.93
2018-05-03T12:20:29.355Z,1.77
2018-05-03T12:22:55.697Z,2.67
2018-05-03T12:25:21.907Z,2.87
2018-05-03T12:27:48.082Z,4.83
2018-05-03T12:30:14.265Z,2.07
2018-05-03T12:32:40.448Z,2.23
2018-05-03T12:35:06.632Z,3.33
2018-05-03T12:37:32.820Z,2.53
2018-05-03T12:39:59.764Z,3.30
2018-05-03T12:42:26.687Z,3.73
2018-05-03T12:44:52.867Z,3.07
2018-05-03T12:47:19.059Z,3.33
2018-05-03T12:49:45.973Z,3.33
2018-05-03T12:52:12.164Z,3.03
2018-05-03T12:54:38.357Z,2.53
2018-05-03T12:57:04.574Z,1.97
2018-05-03T12:59:30.778Z,3.93
2018-05-03T13:01:57.025Z,4.00
2018-05-03T13:04:23.216Z,2.90
2018-05-03T13:06:49.412Z,2.10
2018-05-03T13:09:15.624Z,2.60
2018-05-03T13:11:42.560Z,3.67
2018-05-03T13:14:09.516Z,3.10
2018-05-03T13:16:36.436Z,2.00
2018-05-03T13:19:02.672Z,2.50
2018-05-03T13:21:28.876Z,2.53
2018-05-03T13:23:55.099Z,2.10
2018-05-03T13:26:21.323Z,3.60
2018-05-03T13:28:47.532Z,2.73
2018-05-03T13:31:13.717Z,5.97
2018-05-03T13:33:39.890Z,2.50
2018-05-03T13:36:06.074Z,5.67
2018-05-03T13:38:39.109Z,4.07
2018-05-03T13:41:05.321Z,4.77
2018-05-03T13:43:31.519Z,2.50
2018-05-03T13:45:58.467Z,2.47
2018-05-03T13:48:25.408Z,2.50
2018-05-03T13:50:51.610Z,2.30
2018-05-03T13:53:17.873Z,3.83
2018-05-03T13:55:44.013Z,2.80
2018-05-03T13:58:10.950Z,5.17
2018-05-03T14:00:37.893Z,3.27
2018-05-03T14:03:04.831Z,3.30
2018-05-03T14:05:31.805Z,2.20
2018-05-03T14:07:58.001Z,6.67
2018-05-03T14:10:24.184Z,2.43
2018-05-03T14:12:50.367Z,2.77
2018-05-03T14:15:17.282Z,2.43
2018-05-03T14:17:43.468Z,2.77
2018-05-03T14:20:09.678Z,2.27
2018-05-03T14:22:36.613Z,3.07
2018-05-03T14:25:03.544Z,3.87
2018-05-03T14:27:29.755Z,3.23
2018-05-03T14:29:55.923Z,2.70
2018-05-03T14:32:22.858Z,1.83
2018-05-03T14:34:49.040Z,2.40
2018-05-03T14:37:15.236Z,3.73
2018-05-03T14:39:41.420Z,3.10
2018-05-03T14:42:07.623Z,3.70
2018-05-03T14:44:33.801Z,3.57
2018-05-03T14:47:00.022Z,2.37
2018-05-03T14:49:26.304Z,2.93
2018-05-03T14:51:52.494Z,2.53
2018-05-03T14:54:18.672Z,2.13
2018-05-03T14:56:44.855Z,4.17
2018-05-03T14:59:11.048Z,1.97
2018-05-03T15:01:37.235Z,6.60
2018-05-03T15:04:03.426Z,4.63
2018-05-03T15:06:30.411Z,5.43
2018-05-03T15:08:57.292Z,3.03
2018-05-03T15:11:23.516Z,4.17
2018-05-03T15:13:49.756Z,2.83
2018-05-03T15:16:16.777Z,5.73
2018-05-03T15:18:42.872Z,2.73
2018-05-03T15:21:09.276Z,2.20
2018-05-03T15:23:35.451Z,3.00
2018-05-03T15:26:01.648Z,3.87
2018-05-03T15:28:27.839Z,2.17
2018-05-03T15:30:54.779Z,5.10
2018-05-03T15:33:20.995Z,2.40
2018-05-03T15:35:47.179Z,2.37
2018-05-03T15:38:13.358Z,2.07
2018-05-03T15:40:40.316Z,6.97
2018-05-03T15:43:06.523Z,2.53
2018-05-03T15:45:32.713Z,2.53
2018-05-03T15:47:58.920Z,2.30
2018-05-03T15:50:25.112Z,2.30
2018-05-03T15:52:52.061Z,2.97
2018-05-03T15:55:18.999Z,2.87
2018-05-03T15:57:45.955Z,4.97
2018-05-03T16:00:12.914Z,3.37
2018-05-03T16:02:39.123Z,2.10
2018-05-03T16:05:06.089Z,2.00
2018-05-03T16:07:40.065Z,3.23
2018-05-03T16:10:06.260Z,2.77
2018-05-03T16:12:32.447Z,3.67
2018-05-03T16:14:59.449Z,3.80
2018-05-03T16:17:25.676Z,2.37
2018-05-03T16:19:51.880Z,3.37
2018-05-03T16:22:18.060Z,3.07
2018-05-03T16:24:45.003Z,1.83
2018-05-03T16:27:11.239Z,4.33
2018-05-03T16:29:38.154Z,2.57
2018-05-03T16:32:04.379Z,4.93
2018-05-03T16:34:30.601Z,2.37
2018-05-03T16:36:56.800Z,4.97
2018-05-03T16:39:22.975Z,3.47
2018-05-03T16:41:49.188Z,2.20
2018-05-03T16:44:15.437Z,3.30
2018-05-03T16:46:42.411Z,2.20
2018-05-03T16:49:09.336Z,3.67
2018-05-03T16:51:36.277Z,2.53
2018-05-03T16:54:03.269Z,2.63
2018-05-03T16:56:29.490Z,4.00
2018-05-03T16:58:55.737Z,2.73
2018-05-03T17:01:21.944Z,2.30
2018-05-03T17:03:48.178Z,3.40
2018-05-03T17:06:14.364Z,4.53
2018-05-03T17:08:40.549Z,2.20
2018-05-03T17:11:06.773Z,3.50
2018-05-03T17:13:32.954Z,2.43
2018-05-03T17:15:59.904Z,2.33
2018-05-03T17:18:26.825Z,3.07
2018-05-03T17:20:53.004Z,2.73
2018-05-03T17:23:19.175Z,2.57
2018-05-03T17:25:45.378Z,3.20
2018-05-03T17:28:11.558Z,2.83
2018-05-03T17:30:37.759Z,4.97
2018-05-03T17:33:03.960Z,3.77
2018-05-03T17:35:30.139Z,6.37
2018-05-03T17:37:57.101Z,3.80
2018-05-03T17:40:23.299Z,6.07
2018-05-03T17:42:49.475Z,3.27
2018-05-03T17:45:15.653Z,4.33
2018-05-03T17:47:42.633Z,2.07
2018-05-03T17:50:08.819Z,3.63
2018-05-03T17:52:35.000Z,3.43
2018-05-03T17:55:01.209Z,3.77
2018-05-03T17:57:27.392Z,4.43
2018-05-03T17:59:53.570Z,3.47
2018-05-03T18:02:19.778Z,4.90
2018-05-03T18:04:46.150Z,3.23
2018-05-03T18:07:12.915Z,3.63
2018-05-03T18:09:39.111Z,2.40
2018-05-03T18:12:05.288Z,2.90
2018-05-03T18:14:32.212Z,2.73
2018-05-03T18:16:58.499Z,4.63
2018-05-03T18:19:24.711Z,2.70
2018-05-03T18:21:50.887Z,3.77
2018-05-03T18:24:17.132Z,3.97
2018-05-03T18:26:43.307Z,3.07
2018-05-03T18:29:09.504Z,3.17
2018-05-03T18:31:36.423Z,4.70
2018-05-03T18:34:04.092Z,2.53
2018-05-03T18:36:30.437Z,4.90
2018-05-03T18:38:56.648Z,3.20
2018-05-03T18:41:22.827Z,5.17
2018-05-03T18:43:49.185Z,2.50
2018-05-03T18:46:15.323Z,3.37
2018-05-03T18:48:41.488Z,3.47
2018-05-03T18:51:08.419Z,4.47
2018-05-03T18:53:34.611Z,3.10
2018-05-03T18:56:00.795Z,7.70
2018-05-03T18:58:26.994Z,2.27
2018-05-03T19:00:53.212Z,2.30
2018-05-03T19:03:19.400Z,2.93
2018-05-03T19:05:45.600Z,2.53
2018-05-03T19:08:12.552Z,3.63
2018-05-03T19:10:39.489Z,3.37
2018-05-03T19:13:06.480Z,3.83
2018-05-03T19:15:33.383Z,6.77
2018-05-03T19:18:00.384Z,4.20
2018-05-03T19:20:27.287Z,4.70
2018-05-03T19:22:53.472Z,5.80
2018-05-03T19:25:19.660Z,3.40
2018-05-03T19:27:45.836Z,3.43
2018-05-03T19:30:12.800Z,5.60
2018-05-03T19:32:39.713Z,3.23
2018-05-03T19:35:06.019Z,4.37
2018-05-03T19:37:32.892Z,5.33
2018-05-03T19:39:59.081Z,3.00
2018-05-03T19:42:25.295Z,4.57
2018-05-03T19:44:51.469Z,1.90
2018-05-03T19:47:17.632Z,2.50
2018-05-03T19:49:43.846Z,2.83
2018-05-03T19:52:10.751Z,2.87
2018-05-03T19:54:36.928Z,3.97
2018-05-03T19:57:03.136Z,3.93
2018-05-03T19:59:30.066Z,4.20
2018-05-03T20:01:56.324Z,3.97
2018-05-03T20:04:23.247Z,3.00
2018-05-03T20:06:49.453Z,2.17
2018-05-03T20:09:15.623Z,2.23
2018-05-03T20:11:49.420Z,2.10
2018-05-03T20:14:16.347Z,4.30
2018-05-03T20:16:42.536Z,2.47
2018-05-03T20:19:08.735Z,1.70
2018-05-03T20:21:35.664Z,2.10
2018-05-03T20:24:02.623Z,3.50
2018-05-03T20:26:29.699Z,2.33
2018-05-03T20:28:56.619Z,2.10
2018-05-03T20:31:22.796Z,3.27
2018-05-03T20:33:48.977Z,2.57
2018-05-03T20:36:15.166Z,2.30
2018-05-03T20:38:41.332Z,2.40
2018-05-03T20:41:07.771Z,2.10
2018-05-03T20:43:33.959Z,3.13
2018-05-03T20:46:01.738Z,3.13
2018-05-03T20:48:27.903Z,2.80
2018-05-03T20:50:54.103Z,2.03
2018-05-03T20:53:21.040Z,1.83
2018-05-03T20:55:47.980Z,2.23
2018-05-03T20:58:14.895Z,3.43
2018-05-03T21:00:41.099Z,2.67
2018-05-03T21:03:07.319Z,1.97
2018-05-03T21:05:33.505Z,1.67
2018-05-03T21:08:00.454Z,2.90
2018-05-03T21:10:27.360Z,2.67
2018-05-03T21:12:53.839Z,2.33
2018-05-03T21:15:20.858Z,3.20
2018-05-03T21:17:47.799Z,1.80
2018-05-03T21:20:13.969Z,2.80
2018-05-03T21:22:47.072Z,2.10
2018-05-03T21:25:13.240Z,1.90
2018-05-03T21:27:39.414Z,2.27
2018-05-03T21:30:05.611Z,2.10
2018-05-03T21:32:32.555Z,2.30
2018-05-03T21:34:59.486Z,1.80
2018-05-03T21:37:25.669Z,2.10
2018-05-03T21:39:51.836Z,1.77
2018-05-03T21:42:18.010Z,2.77
2018-05-03T21:44:44.187Z,2.10
2018-05-03T21:47:10.375Z,1.80
2018-05-03T21:49:36.569Z,3.10
2018-05-03T21:52:02.740Z,4.03
2018-05-03T21:54:28.907Z,3.20
2018-05-03T21:56:55.087Z,3.57
2018-05-03T21:59:21.279Z,3.87
2018-05-03T22:01:48.214Z,1.93
2018-05-03T22:04:15.169Z,2.50
2018-05-03T22:06:42.140Z,2.97
2018-05-03T22:09:08.353Z,2.60
2018-05-03T22:11:34.539Z,1.80
2018-05-03T22:14:00.757Z,2.23
2018-05-03T22:16:26.935Z,3.47
2018-05-03T22:18:53.864Z,2.70
2018-05-03T22:21:20.832Z,2.50
2018-05-03T22:23:47.011Z,2.40
2018-05-03T22:26:13.180Z,3.03
2018-05-03T22:28:39.377Z,2.67
2018-05-03T22:31:05.557Z,2.70
2018-05-03T22:33:31.736Z,2.43
2018-05-03T22:35:57.987Z,2.90
2018-05-03T22:38:24.328Z,3.83
2018-05-03T22:40:50.457Z,2.73
2018-05-03T22:43:16.652Z,3.77
2018-05-03T22:45:43.576Z,3.93
2018-05-03T22:48:09.769Z,2.60
2018-05-03T22:50:36.035Z,2.80
2018-05-03T22:53:02.211Z,3.40
2018-05-03T22:55:28.380Z,3.60
2018-05-03T22:57:54.580Z,2.60
2018-05-03T23:00:20.748Z,3.00
2018-05-03T23:02:46.921Z,2.73
2018-05-03T23:05:13.124Z,3.13
2018-05-03T23:07:39.311Z,2.57
2018-05-03T23:10:05.543Z,3.73
2018-05-03T23:12:31.745Z,3.70
2018-05-03T23:14:57.971Z,3.23
2018-05-03T23:17:24.139Z,5.73
2018-05-03T23:19:51.791Z,6.57
2018-05-03T23:22:17.958Z,2.30
2018-05-03T23:24:44.191Z,3.20
2018-05-03T23:27:10.365Z,5.63
2018-05-03T23:29:36.531Z,4.67
2018-05-03T23:32:03.520Z,5.60
2018-05-03T23:34:29.744Z,4.23
2018-05-03T23:36:55.973Z,4.43
2018-05-03T23:39:22.159Z,3.17
2018-05-03T23:41:49.075Z,3.53
2018-05-03T23:44:15.248Z,2.60
2018-05-03T23:46:41.411Z,3.17
2018-05-03T23:49:07.588Z,3.07
2018-05-03T23:51:33.770Z,2.60
2018-05-03T23:53:59.953Z,2.90
2018-05-03T23:56:26.123Z,3.87
2018-05-03T23:58:52.282Z,3.67
